Time;durP1;ratioP1;P1;durP2;ratioP2;P2;SDS_P1;SDS_P2;PMS_P1;PMS_P2;Temp;Humidity;BMP_temperature;BMP_pressure;BME280_temperature;BME280_humidity;BME280_pressure;Samples;Min_cycle;Max_cycle;Signal;HPM_P1;HPM_P2
2023/03/05 00:01:35;;;;;;;;;;;;;;;4.69;76.91;102230.72;5021091;28;20031;-61
2023/03/05 00:04:01;;;;;;;;;;;;;;;4.65;77.00;102233.56;5024258;28;20032;-61
2023/03/05 00:06:28;;;;;;;;;;;;;;;4.63;77.12;102229.34;5027072;28;19917;-61
2023/03/05 00:08:55;;;;;;;;;;;;;;;4.60;76.84;102232.97;5023974;28;20054;-61
2023/03/05 00:11:21;;;;;;;;;;;;;;;4.57;77.25;102227.91;5027202;28;20381;-61
2023/03/05 00:13:46;;;;;;;;;;;;;;;4.56;76.82;102220.97;5020988;28;19925;-62
2023/03/05 00:16:14;;;;;;;;;;;;;;;4.55;77.15;102219.28;5025602;28;20382;-61
2023/03/05 00:18:39;;;;;;;;;;;;;;;4.56;77.48;102228.00;5026216;28;20003;-61
2023/03/05 00:21:05;;;;;;;;;;;;;;;4.54;77.49;102217.59;5021694;28;20401;-61
2023/03/05 00:23:30;;;;;;;;;;;;;;;4.52;77.55;102211.59;5027447;28;20022;-61
2023/03/05 00:25:55;;;;;;;;;;;;;;;4.53;77.42;102210.63;5030046;28;20793;-61
2023/03/05 00:28:20;;;;;;;;;;;;;;;4.52;77.39;102206.31;5027835;28;19945;-61
2023/03/05 00:30:45;;;;;;;;;;;;;;;4.52;77.55;102211.59;5022034;28;20291;-61
2023/03/05 00:33:11;;;;;;;;;;;;;;;4.50;77.82;102205.56;5025140;28;19949;-61
2023/03/05 00:35:45;;;;;;;;;;;;;;;4.48;77.67;102207.47;5025127;28;19944;-61
2023/03/05 00:38:11;;;;;;;;;;;;;;;4.47;77.69;102202.31;5024047;28;19948;-61
2023/03/05 00:40:38;;;;;;;;;;;;;;;4.47;77.66;102203.16;5026317;28;20373;-61
2023/03/05 00:43:03;;;;;;;;;;;;;;;4.47;78.08;102205.78;5024031;28;19924;-61
2023/03/05 00:45:29;;;;;;;;;;;;;;;4.45;78.09;102197.13;5028570;28;19921;-61
2023/03/05 00:47:54;;;;;;;;;;;;;;;4.45;78.01;102199.78;5025224;28;19917;-61
2023/03/05 00:50:19;;;;;;;;;;;;;;;4.43;78.10;102191.13;5024573;28;20349;-61
2023/03/05 00:52:44;;;;;;;;;;;;;;;4.42;78.16;102196.50;5027230;28;19924;-61
2023/03/05 00:55:09;;;;;;;;;;;;;;;4.39;78.22;102188.81;5033401;28;19912;-61
2023/03/05 00:57:35;;;;;;;;;;;;;;;4.34;78.35;102189.09;5027085;28;19924;-61
2023/03/05 01:00:00;;;;;;;;;;;;;;;4.29;78.41;102183.25;5026564;28;19917;-61
2023/03/05 01:02:25;;;;;;;;;;;;;;;4.22;78.59;102185.44;5025910;28;19964;-61
2023/03/05 01:04:50;;;;;;;;;;;;;;;4.17;78.89;102184.88;5029668;28;19913;-61
2023/03/05 01:07:15;;;;;;;;;;;;;;;4.14;78.46;102182.44;5023148;28;19929;-61
2023/03/05 01:09:41;;;;;;;;;;;;;;;4.10;78.87;102182.75;5023047;28;19913;-61
2023/03/05 01:12:06;;;;;;;;;;;;;;;4.06;78.73;102178.63;5027198;28;19917;-61
2023/03/05 01:14:31;;;;;;;;;;;;;;;4.03;78.49;102172.59;5029409;28;20615;-61
2023/03/05 01:16:56;;;;;;;;;;;;;;;4.01;78.49;102174.47;5024052;28;19923;-61
2023/03/05 01:19:22;;;;;;;;;;;;;;;4.00;78.91;102166.69;5024156;28;20378;-61
2023/03/05 01:21:47;;;;;;;;;;;;;;;3.98;79.23;102163.31;5025507;28;19928;-61
2023/03/05 01:24:12;;;;;;;;;;;;;;;3.97;79.26;102161.63;5028436;28;20402;-61
2023/03/05 01:26:37;;;;;;;;;;;;;;;3.95;79.09;102153.84;5027333;28;19924;-61
2023/03/05 01:29:02;;;;;;;;;;;;;;;3.94;79.56;102154.78;5022633;28;19914;-61
2023/03/05 01:31:28;;;;;;;;;;;;;;;3.93;79.78;102150.47;5024810;28;20370;-61
2023/03/05 01:33:53;;;;;;;;;;;;;;;3.93;79.71;102149.63;5025186;28;19929;-61
2023/03/05 01:36:20;;;;;;;;;;;;;;;3.93;80.18;102145.19;5025884;28;19927;-62
2023/03/05 01:38:46;;;;;;;;;;;;;;;3.93;79.85;102144.34;5029105;28;19921;-61
2023/03/05 01:41:12;;;;;;;;;;;;;;;3.92;79.89;102140.88;5022441;28;20393;-61
2023/03/05 01:43:37;;;;;;;;;;;;;;;3.91;80.16;102140.97;5023505;28;19928;-61
2023/03/05 01:46:12;;;;;;;;;;;;;;;3.89;80.37;102127.94;5024569;28;19921;-61
2023/03/05 01:48:38;;;;;;;;;;;;;;;3.87;81.01;102119.31;5024373;28;19924;-61
2023/03/05 01:51:03;;;;;;;;;;;;;;;3.83;81.58;102122.22;5025583;28;19927;-61
2023/03/05 01:53:28;;;;;;;;;;;;;;;3.79;81.71;102120.75;5018274;28;19917;-61
2023/03/05 01:55:54;;;;;;;;;;;;;;;3.74;81.52;102121.00;5026579;28;19967;-61
2023/03/05 01:58:19;;;;;;;;;;;;;;;3.70;81.69;102119.50;5022011;28;20305;-61
2023/03/05 02:00:49;;;;;;;;;;;;;;;3.69;81.64;102102.06;5019598;28;19913;-61
2023/03/05 02:03:15;;;;;;;;;;;;;;;3.67;82.07;102103.94;5025071;28;19939;-61
2023/03/05 02:05:43;;;;;;;;;;;;;;;3.67;81.83;102099.53;5015347;28;20390;-61
2023/03/05 02:08:10;;;;;;;;;;;;;;;3.67;82.02;102099.53;5027045;28;19963;-61
2023/03/05 02:10:36;;;;;;;;;;;;;;;3.71;81.99;102094.91;5021502;28;19922;-61
2023/03/05 02:13:03;;;;;;;;;;;;;;;3.73;82.47;102088.63;5025856;28;19948;-61
2023/03/05 02:15:29;;;;;;;;;;;;;;;3.70;82.66;102085.34;5022350;28;20293;-61
2023/03/05 02:17:54;;;;;;;;;;;;;;;3.69;82.62;102087.13;5025962;28;19925;-61
2023/03/05 02:20:21;;;;;;;;;;;;;;;3.71;82.64;102085.25;5024742;28;19921;-61
2023/03/05 02:22:46;;;;;;;;;;;;;;;3.71;82.92;102077.38;5032372;28;19927;-61
2023/03/05 02:25:13;;;;;;;;;;;;;;;3.68;83.02;102076.72;5029824;28;19925;-61
2023/03/05 02:27:39;;;;;;;;;;;;;;;3.66;83.53;102076.81;5032949;28;20447;-61
2023/03/05 02:30:05;;;;;;;;;;;;;;;3.63;83.46;102076.19;5023419;28;19956;-61
2023/03/05 02:32:30;;;;;;;;;;;;;;;3.60;83.78;102065.88;5032467;28;19917;-61
2023/03/05 02:34:55;;;;;;;;;;;;;;;3.54;83.59;102063.63;5028137;28;20440;-61
2023/03/05 02:37:21;;;;;;;;;;;;;;;3.51;84.14;102063.81;5026422;28;20397;-63
2023/03/05 02:39:46;;;;;;;;;;;;;;;3.47;84.22;102057.91;5033833;28;19928;-61
2023/03/05 02:42:11;;;;;;;;;;;;;;;3.43;84.64;102051.97;5032928;28;20060;-61
2023/03/05 02:44:36;;;;;;;;;;;;;;;3.38;84.91;102043.53;5031600;28;19917;-61
2023/03/05 02:47:01;;;;;;;;;;;;;;;3.36;84.82;102045.44;5026651;28;19924;-61
2023/03/05 02:49:27;;;;;;;;;;;;;;;3.17;84.68;102018.59;5027654;28;20090;-61
2023/03/05 02:51:52;;;;;;;;;;;;;;;3.30;85.07;102032.69;5024633;28;19924;-61
2023/03/05 02:54:17;;;;;;;;;;;;;;;3.29;86.06;102036.25;5032235;28;19980;-61
2023/03/05 02:56:42;;;;;;;;;;;;;;;3.27;86.39;102038.13;5035249;28;19917;-61
2023/03/05 02:59:08;;;;;;;;;;;;;;;3.26;86.37;102032.97;5030927;28;19921;-61
2023/03/05 03:01:33;;;;;;;;;;;;;;;3.21;86.42;102030.63;5032047;28;20030;-61
2023/03/05 03:03:58;;;;;;;;;;;;;;;3.10;86.70;102023.38;5034662;28;20508;-61
2023/03/05 03:06:23;;;;;;;;;;;;;;;3.02;86.68;102024.81;5029059;28;19920;-61
2023/03/05 03:08:49;;;;;;;;;;;;;;;2.90;86.79;102020.31;5038132;28;19925;-61
2023/03/05 03:11:14;;;;;;;;;;;;;;;2.82;87.26;102002.38;5031002;28;19924;-61
2023/03/05 03:13:39;;;;;;;;;;;;;;;2.75;87.27;102006.31;5028736;28;20545;-60
2023/03/05 03:16:06;;;;;;;;;;;;;;;2.73;87.92;102000.31;5027743;28;19917;-61
2023/03/05 03:18:32;;;;;;;;;;;;;;;2.76;88.38;102002.75;5026406;28;19921;-61
2023/03/05 03:20:57;;;;;;;;;;;;;;;2.75;88.48;102001.91;5030761;28;20012;-61
2023/03/05 03:23:22;;;;;;;;;;;;;;;2.71;87.83;102007.44;5031578;28;19917;-61
2023/03/05 03:25:47;;;;;;;;;;;;;;;2.68;87.20;102005.84;5032863;28;19917;-61
2023/03/05 03:28:12;;;;;;;;;;;;;;;2.68;87.16;102005.84;5030463;28;20007;-61
2023/03/05 03:30:37;;;;;;;;;;;;;;;2.72;87.15;102009.13;5030564;28;19924;-61
2023/03/05 03:33:03;;;;;;;;;;;;;;;2.72;87.08;102002.09;5026513;28;19965;-61
2023/03/05 03:35:28;;;;;;;;;;;;;;;2.72;87.32;101996.84;5037482;28;19925;-61
2023/03/05 03:37:53;;;;;;;;;;;;;;;2.73;87.19;101993.28;5021697;28;19929;-61
2023/03/05 03:40:18;;;;;;;;;;;;;;;2.74;87.08;101987.09;5028652;28;19923;-61
2023/03/05 03:42:43;;;;;;;;;;;;;;;2.76;87.32;101984.38;5021989;28;19917;-62
2023/03/05 03:45:09;;;;;;;;;;;;;;;2.80;86.95;101984.09;5027180;28;19917;-61
2023/03/05 03:47:34;;;;;;;;;;;;;;;2.79;87.20;101981.59;5023101;28;19921;-61
2023/03/05 03:49:59;;;;;;;;;;;;;;;2.80;87.04;101981.50;5023652;28;19928;-61
2023/03/05 03:52:25;;;;;;;;;;;;;;;2.82;87.32;101975.31;5020643;28;19925;-61
2023/03/05 03:54:51;;;;;;;;;;;;;;;2.82;87.88;101975.31;5022266;28;19966;-61
2023/03/05 03:57:17;;;;;;;;;;;;;;;2.83;88.06;101975.22;5024633;28;20008;-61
2023/03/05 03:59:44;;;;;;;;;;;;;;;2.84;87.85;101973.44;5021625;28;20078;-61
2023/03/05 04:02:09;;;;;;;;;;;;;;;2.86;88.06;101976.81;5024835;28;20304;-61
2023/03/05 04:04:34;;;;;;;;;;;;;;;2.86;87.98;101972.41;5025044;28;20399;-61
2023/03/05 04:06:59;;;;;;;;;;;;;;;2.86;88.76;101963.69;5023493;28;19940;-61
2023/03/05 04:09:24;;;;;;;;;;;;;;;2.89;88.98;101960.88;5027128;28;20039;-61
2023/03/05 04:11:50;;;;;;;;;;;;;;;2.89;89.42;101959.13;5027427;28;19917;-61
2023/03/05 04:14:15;;;;;;;;;;;;;;;2.89;89.84;101958.25;5028165;28;19956;-61
2023/03/05 04:16:40;;;;;;;;;;;;;;;2.90;90.09;101949.47;5028942;28;19971;-61
2023/03/05 04:19:05;;;;;;;;;;;;;;;2.88;89.94;101949.53;5024337;28;19921;-61
2023/03/05 04:21:30;;;;;;;;;;;;;;;2.88;90.03;101951.31;5034842;28;20406;-63
2023/03/05 04:23:56;;;;;;;;;;;;;;;2.87;90.15;101947.84;5028354;28;19928;-61
2023/03/05 04:26:21;;;;;;;;;;;;;;;2.88;90.38;101946.06;5028808;28;19971;-60
2023/03/05 04:28:47;;;;;;;;;;;;;;;2.89;90.01;101942.50;5021080;28;19922;-61
2023/03/05 04:31:12;;;;;;;;;;;;;;;2.86;89.78;101932.19;5026606;28;19924;-61
2023/03/05 04:33:37;;;;;;;;;;;;;;;2.85;89.54;101939.22;5024316;28;19917;-61
2023/03/05 04:36:02;;;;;;;;;;;;;;;2.84;89.44;101934.94;5023912;28;20016;-61
2023/03/05 04:38:27;;;;;;;;;;;;;;;2.82;89.40;101925.47;5021571;28;19933;-61
2023/03/05 04:40:53;;;;;;;;;;;;;;;2.82;89.44;101930.72;5022430;28;20004;-61
2023/03/05 04:43:18;;;;;;;;;;;;;;;2.83;89.14;101940.25;5026384;28;19971;-61
2023/03/05 04:45:43;;;;;;;;;;;;;;;2.84;89.20;101931.47;5026725;28;20301;-61
2023/03/05 04:48:09;;;;;;;;;;;;;;;2.86;88.83;101929.59;5025764;28;20370;-61
2023/03/05 04:50:35;;;;;;;;;;;;;;;2.89;88.93;101934.63;5023456;28;19928;-61
2023/03/05 04:53:00;;;;;;;;;;;;;;;2.90;88.86;101931.09;5025607;28;19925;-61
2023/03/05 04:55:25;;;;;;;;;;;;;;;2.91;88.78;101922.28;5025209;28;20621;-60
2023/03/05 04:57:50;;;;;;;;;;;;;;;2.91;88.79;101919.69;5028185;28;19929;-61
2023/03/05 05:00:16;;;;;;;;;;;;;;;2.92;88.94;101916.13;5028373;28;19925;-61
2023/03/05 05:02:42;;;;;;;;;;;;;;;2.93;88.83;101915.19;5032332;28;19912;-60
2023/03/05 05:05:09;;;;;;;;;;;;;;;2.92;88.82;101903.84;5030815;28;19963;-61
2023/03/05 05:07:34;;;;;;;;;;;;;;;2.92;88.98;101910.88;5027327;28;19917;-61
2023/03/05 05:09:59;;;;;;;;;;;;;;;2.91;89.08;101902.16;5029963;28;19978;-61
2023/03/05 05:12:27;;;;;;;;;;;;;;;2.90;89.05;101905.72;5021781;28;19923;-61
2023/03/05 05:14:52;;;;;;;;;;;;;;;2.88;89.29;101897.06;5023841;28;19925;-61
2023/03/05 05:17:17;;;;;;;;;;;;;;;2.89;89.58;101895.28;5026623;28;19921;-61
2023/03/05 05:19:42;;;;;;;;;;;;;;;2.88;89.79;101901.47;5029333;28;20412;-61
2023/03/05 05:22:07;;;;;;;;;;;;;;;2.87;89.64;101889.28;5019133;28;19921;-61
2023/03/05 05:24:32;;;;;;;;;;;;;;;2.86;90.10;101891.06;5028346;28;20451;-61
2023/03/05 05:26:58;;;;;;;;;;;;;;;2.87;90.19;101890.13;5026845;28;19918;-62
2023/03/05 05:29:23;;;;;;;;;;;;;;;2.88;90.42;101888.34;5023003;28;19917;-61
2023/03/05 05:31:48;;;;;;;;;;;;;;;2.88;90.05;101896.22;5023105;28;19934;-61
2023/03/05 05:34:14;;;;;;;;;;;;;;;2.88;89.93;101889.19;5028387;28;19917;-62
2023/03/05 05:36:39;;;;;;;;;;;;;;;2.88;90.17;101885.72;5019323;28;19924;-61
2023/03/05 05:39:05;;;;;;;;;;;;;;;2.88;90.27;101886.56;5019819;28;19921;-61
2023/03/05 05:41:30;;;;;;;;;;;;;;;2.89;90.20;101892.66;5026722;28;20799;-61
2023/03/05 05:43:55;;;;;;;;;;;;;;;2.90;89.83;101883.88;5025085;28;20275;-61
2023/03/05 05:46:20;;;;;;;;;;;;;;;2.91;89.87;101881.16;5020176;28;20048;-61
2023/03/05 05:48:46;;;;;;;;;;;;;;;2.93;89.62;101876.66;5026180;28;19917;-61
2023/03/05 05:51:13;;;;;;;;;;;;;;;2.96;89.50;101881.72;5024009;28;20378;-61
2023/03/05 05:53:39;;;;;;;;;;;;;;;3.00;89.27;101875.34;5025823;28;19917;-62
2023/03/05 05:56:05;;;;;;;;;;;;;;;3.04;89.33;101876.81;5021760;28;19917;-61
2023/03/05 05:58:30;;;;;;;;;;;;;;;3.07;89.35;101881.03;5025150;28;19925;-62
2023/03/05 06:00:55;;;;;;;;;;;;;;;3.09;89.47;101879.16;5021983;28;19959;-61
2023/03/05 06:03:20;;;;;;;;;;;;;;;3.11;89.28;101882.53;5022377;28;19917;-61
2023/03/05 06:05:46;;;;;;;;;;;;;;;3.11;89.28;101879.91;5025321;28;19928;-61
2023/03/05 06:08:12;;;;;;;;;;;;;;;3.11;89.06;101877.28;5017238;28;19917;-61
2023/03/05 06:10:37;;;;;;;;;;;;;;;3.10;89.18;101867.72;5025726;28;20414;-61
2023/03/05 06:13:02;;;;;;;;;;;;;;;3.08;89.12;101869.59;5023631;28;19921;-61
2023/03/05 06:15:28;;;;;;;;;;;;;;;3.09;88.95;101866.03;5026261;28;20453;-61
2023/03/05 06:17:53;;;;;;;;;;;;;;;3.08;88.71;101865.19;5020618;28;19926;-61
2023/03/05 06:20:18;;;;;;;;;;;;;;;3.08;89.11;101859.09;5026881;28;19959;-61
2023/03/05 06:22:44;;;;;;;;;;;;;;;3.05;89.22;101856.66;5027838;28;19913;-61
2023/03/05 06:25:09;;;;;;;;;;;;;;;3.01;89.32;101857.81;5024102;28;19921;-61
2023/03/05 06:27:35;;;;;;;;;;;;;;;2.97;89.69;101858.94;5026972;28;20357;-61
2023/03/05 06:30:00;;;;;;;;;;;;;;;2.94;89.88;101859.13;5020855;28;20325;-61
2023/03/05 06:32:25;;;;;;;;;;;;;;;2.90;90.10;101868.16;5022806;28;19919;-61
2023/03/05 06:34:51;;;;;;;;;;;;;;;2.85;90.10;101857.91;5019615;28;19981;-61
2023/03/05 06:37:16;;;;;;;;;;;;;;;2.84;90.68;101852.75;5022046;28;19918;-61
2023/03/05 06:39:41;;;;;;;;;;;;;;;2.83;91.10;101854.53;5028276;28;19917;-61
2023/03/05 06:42:07;;;;;;;;;;;;;;;2.84;91.57;101853.59;5022228;28;20018;-61
2023/03/05 06:44:32;;;;;;;;;;;;;;;2.83;91.79;101859.78;5025816;28;19956;-61
2023/03/05 06:46:57;;;;;;;;;;;;;;;2.84;91.79;101858.84;5018692;28;19913;-61
2023/03/05 06:49:24;;;;;;;;;;;;;;;2.86;91.81;101858.75;5017461;28;21362;-61
2023/03/05 06:51:49;;;;;;;;;;;;;;;2.86;91.91;101854.34;5020420;28;20531;-61
2023/03/05 06:54:15;;;;;;;;;;;;;;;2.88;91.98;101859.50;5025532;28;20362;-61
2023/03/05 06:56:42;;;;;;;;;;;;;;;2.89;91.85;101853.31;5026164;28;20390;-61
2023/03/05 06:59:08;;;;;;;;;;;;;;;2.92;92.32;101853.16;5024371;28;19936;-61
2023/03/05 07:01:33;;;;;;;;;;;;;;;2.95;92.13;101851.16;5025990;28;19913;-61
2023/03/05 07:03:59;;;;;;;;;;;;;;;3.00;91.76;101859.59;5021296;28;20004;-61
2023/03/05 07:06:26;;;;;;;;;;;;;;;3.04;91.56;101860.22;5019808;28;19913;-61
2023/03/05 07:08:53;;;;;;;;;;;;;;;3.07;91.68;101857.41;5027157;28;19916;-61
2023/03/05 07:11:19;;;;;;;;;;;;;;;3.10;91.39;101858.06;5030263;28;19921;-61
2023/03/05 07:13:46;;;;;;;;;;;;;;;3.14;91.54;101857.84;5025926;28;19921;-61
2023/03/05 07:16:15;;;;;;;;;;;;;;;3.15;92.06;101852.50;5023038;28;20015;-61
2023/03/05 07:18:41;;;;;;;;;;;;;;;3.19;91.91;101851.41;5028539;28;20004;-61
2023/03/05 07:21:07;;;;;;;;;;;;;;;3.20;92.04;101845.22;5021628;28;20080;-61
2023/03/05 07:23:33;;;;;;;;;;;;;;;3.23;92.26;101849.41;5027628;28;19913;-61
2023/03/05 07:26:02;;;;;;;;;;;;;;;3.23;92.67;101849.41;5027212;28;19920;-62
2023/03/05 07:28:27;;;;;;;;;;;;;;;3.23;93.24;101841.53;5024005;28;19936;-61
2023/03/05 07:30:56;;;;;;;;;;;;;;;3.24;92.96;101846.69;5024340;28;19918;-62
2023/03/05 07:33:21;;;;;;;;;;;;;;;3.26;92.76;101844.81;5023256;28;20043;-62
2023/03/05 07:35:47;;;;;;;;;;;;;;;3.28;92.63;101842.94;5023897;28;20346;-62
2023/03/05 07:38:12;;;;;;;;;;;;;;;3.33;92.63;101840.84;5025194;28;19917;-62
2023/03/05 07:40:37;;;;;;;;;;;;;;;3.39;92.60;101845.69;5026588;28;20020;-62
2023/03/05 07:43:02;;;;;;;;;;;;;;;3.41;92.76;101843.81;5030690;28;19921;-62
2023/03/05 07:45:27;;;;;;;;;;;;;;;3.42;92.49;101839.41;5030023;28;19944;-62
2023/03/05 07:47:54;;;;;;;;;;;;;;;3.43;92.54;101836.66;5023962;28;19917;-62
2023/03/05 07:50:20;;;;;;;;;;;;;;;3.47;92.40;101839.97;5030522;28;19917;-62
2023/03/05 07:52:45;;;;;;;;;;;;;;;3.49;93.00;101839.88;5022422;28;20017;-62
2023/03/05 07:55:10;;;;;;;;;;;;;;;3.51;92.41;101835.34;5027731;28;20326;-62
2023/03/05 07:57:37;;;;;;;;;;;;;;;3.53;92.94;101833.47;5027402;28;19928;-62
2023/03/05 08:00:03;;;;;;;;;;;;;;;3.56;92.98;101835.88;5026040;28;19987;-62
2023/03/05 08:02:28;;;;;;;;;;;;;;;3.58;92.96;101831.38;5026911;28;19913;-62
2023/03/05 08:04:54;;;;;;;;;;;;;;;3.62;93.26;101835.47;5019458;28;19913;-62
2023/03/05 08:07:19;;;;;;;;;;;;;;;3.65;93.13;101830.00;5024551;28;20062;-62
2023/03/05 08:09:44;;;;;;;;;;;;;;;3.64;93.17;101825.69;5024613;28;19913;-62
2023/03/05 08:12:09;;;;;;;;;;;;;;;3.67;93.25;101828.13;5022974;28;19913;-62
2023/03/05 08:14:35;;;;;;;;;;;;;;;3.68;93.51;101814.03;5029014;28;19917;-62
2023/03/05 08:17:00;;;;;;;;;;;;;;;3.69;93.60;101820.97;5028243;28;19913;-62
2023/03/05 08:19:25;;;;;;;;;;;;;;;3.71;93.15;101819.09;5028524;28;20370;-62
2023/03/05 08:21:51;;;;;;;;;;;;;;;3.74;93.56;101824.13;5019220;28;19924;-62
2023/03/05 08:24:16;;;;;;;;;;;;;;;3.79;93.22;101819.44;5027923;28;20492;-62
2023/03/05 08:26:41;;;;;;;;;;;;;;;3.85;94.03;101816.41;5028542;28;19967;-62
2023/03/05 08:29:07;;;;;;;;;;;;;;;3.93;93.56;101818.50;5030076;28;19921;-62
2023/03/05 08:31:33;;;;;;;;;;;;;;;3.97;93.65;101806.84;5027863;28;19929;-62
2023/03/05 08:33:59;;;;;;;;;;;;;;;4.01;93.76;101813.56;5031875;28;19913;-62
2023/03/05 08:36:24;;;;;;;;;;;;;;;4.03;93.36;101809.03;5017168;28;20688;-62
2023/03/05 08:38:50;;;;;;;;;;;;;;;4.08;93.12;101806.13;5023777;28;19917;-62
2023/03/05 08:41:16;;;;;;;;;;;;;;;4.10;92.84;101807.69;5022704;28;20370;-62
2023/03/05 08:43:41;;;;;;;;;;;;;;;4.10;92.71;101806.84;5027386;28;19924;-62
2023/03/05 08:46:07;;;;;;;;;;;;;;;4.12;92.73;101795.28;5024657;28;19917;-62
2023/03/05 08:48:33;;;;;;;;;;;;;;;4.18;93.16;101789.59;5028592;28;19920;-62
2023/03/05 08:51:06;;;;;;;;;;;;;;;4.26;93.12;101784.66;5018898;28;20016;-62
2023/03/05 08:53:31;;;;;;;;;;;;;;;4.34;92.93;101789.41;5024121;28;20387;-62
2023/03/05 08:55:56;;;;;;;;;;;;;;;4.44;92.15;101785.16;5026074;28;20015;-62
2023/03/05 08:58:22;;;;;;;;;;;;;;;4.43;92.09;101787.91;5022950;28;19918;-62
2023/03/05 09:00:47;;;;;;;;;;;;;;;4.43;92.40;101786.09;5024188;28;20516;-62
2023/03/05 09:03:12;;;;;;;;;;;;;;;4.47;92.44;101779.69;5029821;28;20405;-62
2023/03/05 09:05:37;;;;;;;;;;;;;;;4.55;91.97;101781.75;5022370;28;19917;-62
2023/03/05 09:08:03;;;;;;;;;;;;;;;4.59;92.23;101781.44;5018721;28;19948;-62
2023/03/05 09:10:28;;;;;;;;;;;;;;;4.61;91.84;101769.00;5021927;28;19943;-62
2023/03/05 09:12:53;;;;;;;;;;;;;;;4.63;91.77;101766.31;5027356;28;19917;-62
2023/03/05 09:15:18;;;;;;;;;;;;;;;4.69;91.46;101771.13;5022153;28;19918;-62
2023/03/05 09:17:43;;;;;;;;;;;;;;;4.72;91.60;101778.78;5019511;28;19920;-62
2023/03/05 09:20:10;;;;;;;;;;;;;;;4.76;91.32;101772.34;5029058;28;20000;-62
2023/03/05 09:22:36;;;;;;;;;;;;;;;4.81;90.82;101767.59;5021573;28;20336;-62
2023/03/05 09:25:01;;;;;;;;;;;;;;;4.83;91.03;101773.59;5023194;28;20001;-62
2023/03/05 09:27:26;;;;;;;;;;;;;;;4.84;90.82;101763.91;5018373;28;19913;-62
2023/03/05 09:29:52;;;;;;;;;;;;;;;4.87;90.61;101766.31;5026124;28;19913;-61
2023/03/05 09:32:17;;;;;;;;;;;;;;;4.92;90.52;101767.69;5021860;28;20460;-62
2023/03/05 09:34:42;;;;;;;;;;;;;;;5.00;90.62;101764.47;5025753;28;19940;-62
2023/03/05 09:37:07;;;;;;;;;;;;;;;5.08;90.57;101763.91;5026994;28;19917;-62
2023/03/05 09:39:33;;;;;;;;;;;;;;;5.14;90.31;101760.81;5026128;28;20444;-62
2023/03/05 09:42:08;;;;;;;;;;;;;;;5.21;90.59;101752.38;5020925;28;19920;-62
2023/03/05 09:44:53;;;;;;;;;;;;;;;5.28;90.67;101750.97;5022131;28;19921;-62
2023/03/05 09:47:31;;;;;;;;;;;;;;;5.34;89.90;101752.28;5021048;28;19925;-62
2023/03/05 09:49:59;;;;;;;;;;;;;;;5.34;89.70;101744.41;5026239;28;19917;-62
2023/03/05 09:52:45;;;;;;;;;;;;;;;5.31;88.95;101743.78;5027287;28;19917;-62
2023/03/05 09:55:19;;;;;;;;;;;;;;;5.29;88.74;101749.16;5027001;28;19913;-62
2023/03/05 09:57:48;;;;;;;;;;;;;;;5.35;88.71;101743.44;5025195;28;20023;-62
2023/03/05 10:00:32;;;;;;;;;;;;;;;5.39;88.63;101738.78;5026586;28;20003;-62
2023/03/05 10:02:59;;;;;;;;;;;;;;;5.39;88.31;101738.78;5023268;28;19920;-62
2023/03/05 10:05:36;;;;;;;;;;;;;;;5.37;88.18;101738.06;5023609;28;20004;-62
2023/03/05 10:08:04;;;;;;;;;;;;;;;5.35;87.68;101727.63;5023887;28;19913;-62
2023/03/05 10:10:38;;;;;;;;;;;;;;;5.28;87.15;101731.69;5021587;28;19925;-63
2023/03/05 10:13:10;;;;;;;;;;;;;;;5.31;87.14;101725.34;5022906;28;19928;-62
2023/03/05 10:15:54;;;;;;;;;;;;;;;5.33;86.97;101733.97;5021993;28;19920;-62
2023/03/05 10:18:22;;;;;;;;;;;;;;;5.40;86.88;101733.41;5019565;28;19925;-62
2023/03/05 10:20:54;;;;;;;;;;;;;;;5.44;86.55;101726.09;5026034;28;20465;-62
2023/03/05 10:23:38;;;;;;;;;;;;;;;5.50;86.63;101720.38;5024330;28;19909;-62
2023/03/05 10:26:03;;;;;;;;;;;;;;;5.58;86.24;101731.19;5016755;28;19917;-62
2023/03/05 10:28:31;;;;;;;;;;;;;;;5.55;86.68;101718.25;5022711;28;19968;-62
2023/03/05 10:31:02;;;;;;;;;;;;;;;5.50;86.44;101721.22;5024224;28;19925;-62
2023/03/05 10:33:46;;;;;;;;;;;;;;;5.50;86.59;101720.38;5019194;28;19921;-62
2023/03/05 10:36:30;;;;;;;;;;;;;;;5.52;86.63;101713.22;5023064;28;19918;-62
2023/03/05 10:39:13;;;;;;;;;;;;;;;5.49;86.73;101713.41;5021777;28;19922;-62
2023/03/05 10:41:52;;;;;;;;;;;;;;;5.52;86.21;101714.06;5020684;28;20386;-62
2023/03/05 10:44:23;;;;;;;;;;;;;;;5.51;86.42;101708.91;5030403;28;19948;-62
2023/03/05 10:46:48;;;;;;;;;;;;;;;5.55;86.19;101702.44;5026576;28;19924;-62
2023/03/05 10:49:19;;;;;;;;;;;;;;;5.62;86.54;101703.63;5026767;28;19917;-62
2023/03/05 10:51:50;;;;;;;;;;;;;;;5.76;86.73;101699.94;5024178;28;19959;-62
2023/03/05 10:54:28;;;;;;;;;;;;;;;5.88;86.64;101691.94;5026749;28;19932;-62
2023/03/05 10:57:12;;;;;;;;;;;;;;;5.93;85.94;101694.22;5024781;28;19917;-62
2023/03/05 10:59:40;;;;;;;;;;;;;;;5.97;85.41;101686.91;5025345;28;19982;-62
2023/03/05 11:02:07;;;;;;;;;;;;;;;6.01;85.17;101683.09;5023842;28;20395;-62
2023/03/05 11:04:35;;;;;;;;;;;;;;;6.02;84.91;101669.78;5027729;28;19917;-62
2023/03/05 11:07:04;;;;;;;;;;;;;;;6.08;84.74;101682.50;5028180;28;19917;-62
2023/03/05 11:09:31;;;;;;;;;;;;;;;6.14;84.25;101674.09;5024118;28;20015;-62
2023/03/05 11:12:02;;;;;;;;;;;;;;;6.25;84.24;101670.59;5026176;28;20391;-62
2023/03/05 11:14:32;;;;;;;;;;;;;;;6.35;84.07;101665.41;5019776;28;19936;-62
2023/03/05 11:16:58;;;;;;;;;;;;;;;6.37;84.03;101661.72;5024164;28;19928;-62
2023/03/05 11:19:36;;;;;;;;;;;;;;;6.40;83.71;101664.13;5025215;28;19936;-62
2023/03/05 11:22:15;;;;;;;;;;;;;;;6.52;83.52;101657.00;5024643;28;20002;-62
2023/03/05 11:24:40;;;;;;;;;;;;;;;6.70;83.41;101652.03;5021279;28;20662;-62
2023/03/05 11:27:41;;;;;;;;;;;;;;;6.87;83.36;101648.00;5023283;28;19967;-62
2023/03/05 11:30:25;;;;;;;;;;;;;;;7.00;83.24;101646.03;4942477;28;19930;-62
2023/03/05 11:33:05;;;;;;;;;;;;;;;7.13;83.14;101644.03;5018167;28;19918;-62
2023/03/05 11:35:33;;;;;;;;;;;;;;;7.21;82.71;101643.38;5027687;28;19917;-62
2023/03/05 11:37:59;;;;;;;;;;;;;;;7.14;82.33;101629.84;5021336;28;20386;-62
2023/03/05 11:40:26;;;;;;;;;;;;;;;7.20;81.30;101639.91;5018289;28;20008;-62
2023/03/05 11:42:55;;;;;;;;;;;;;;;7.23;80.89;101641.44;5021946;28;19913;-62
2023/03/05 11:45:21;;;;;;;;;;;;;;;7.25;80.68;101637.72;5022328;28;19913;-62
2023/03/05 11:47:48;;;;;;;;;;;;;;;7.25;80.13;101632.44;5029392;28;19920;-62
2023/03/05 11:50:19;;;;;;;;;;;;;;;7.24;79.40;101630.78;5030446;28;19920;-62
2023/03/05 11:52:46;;;;;;;;;;;;;;;7.29;79.09;101625.94;5029663;28;19959;-62
2023/03/05 11:55:20;;;;;;;;;;;;;;;7.32;78.94;101620.38;5024684;28;19926;-62
2023/03/05 11:58:15;;;;;;;;;;;;;;;7.35;78.86;101616.63;5024185;28;19928;-62
2023/03/05 12:00:42;;;;;;;;;;;;;;;7.34;78.59;101613.16;5026391;28;20412;-62
2023/03/05 12:03:11;;;;;;;;;;;;;;;7.38;78.31;101605.81;5024960;28;19949;-62
2023/03/05 12:05:39;;;;;;;;;;;;;;;7.42;78.32;101599.28;5030057;28;20340;-62
2023/03/05 12:08:09;;;;;;;;;;;;;;;7.43;77.54;101596.50;5034145;28;19913;-62
2023/03/05 12:10:34;;;;;;;;;;;;;;;7.45;77.52;101591.94;5027548;28;20348;-62
2023/03/05 12:13:12;;;;;;;;;;;;;;;7.51;77.35;101587.91;5023417;28;19914;-62
2023/03/05 12:15:46;;;;;;;;;;;;;;;7.62;77.24;101589.66;5024783;28;19917;-62
2023/03/05 12:18:22;;;;;;;;;;;;;;;7.65;76.48;101584.09;5027550;28;19921;-62
2023/03/05 12:20:53;;;;;;;;;;;;;;;7.62;75.93;101571.97;5025352;28;19920;-62
2023/03/05 12:23:20;;;;;;;;;;;;;;;7.62;75.58;101563.22;5027682;28;20004;-62
2023/03/05 12:25:56;;;;;;;;;;;;;;;7.59;75.15;101564.31;5030075;28;19939;-62
2023/03/05 12:28:27;;;;;;;;;;;;;;;7.51;74.79;101558.00;5029726;28;19913;-62
2023/03/05 12:30:54;;;;;;;;;;;;;;;7.45;74.25;101556.75;5029234;28;19940;-62
2023/03/05 12:33:28;;;;;;;;;;;;;;;7.39;74.00;101552.00;5027647;28;19925;-62
2023/03/05 12:36:13;;;;;;;;;;;;;;;7.35;73.60;101547.94;5027952;28;20390;-62
2023/03/05 12:38:39;;;;;;;;;;;;;;;7.31;73.71;101538.63;5023439;28;19918;-62
2023/03/05 12:41:22;;;;;;;;;;;;;;;7.33;73.15;101539.31;5027540;28;20008;-62
2023/03/05 12:44:05;;;;;;;;;;;;;;;7.38;73.60;101534.47;5018988;28;20060;-62
2023/03/05 12:46:53;;;;;;;;;;;;;;;7.43;73.34;101521.69;5027396;28;20409;-62
2023/03/05 12:49:19;;;;;;;;;;;;;;;7.48;73.49;101519.47;4985799;28;19925;-62